sensor_id;sensor_type;location;lat;lon;timestamp;P1;durP1;ratioP1;P2;durP2;ratioP2
6850;SDS011;3464;42.728;23.296;2022-11-11T00:02:20;91.40;;;53.70;;
6850;SDS011;3464;42.728;23.296;2022-11-11T00:04:48;91.37;;;51.30;;
6850;SDS011;3464;42.728;23.296;2022-11-11T00:07:15;97.67;;;52.67;;
6850;SDS011;3464;42.728;23.296;2022-11-11T00:09:42;90.63;;;51.80;;
6850;SDS011;3464;42.728;23.296;2022-11-11T00:12:08;97.10;;;52.73;;
6850;SDS011;3464;42.728;23.296;2022-11-11T00:14:35;87.77;;;50.70;;
6850;SDS011;3464;42.728;23.296;2022-11-11T00:17:02;99.13;;;52.30;;
6850;SDS011;3464;42.728;23.296;2022-11-11T00:19:34;91.90;;;53.47;;
6850;SDS011;3464;42.728;23.296;2022-11-11T00:22:23;99.90;;;53.97;;
6850;SDS011;3464;42.728;23.296;2022-11-11T00:24:59;85.17;;;47.37;;
6850;SDS011;3464;42.728;23.296;2022-11-11T00:27:31;92.60;;;48.80;;
6850;SDS011;3464;42.728;23.296;2022-11-11T00:29:57;80.37;;;44.50;;
6850;SDS011;3464;42.728;23.296;2022-11-11T00:32:24;77.27;;;43.27;;
6850;SDS011;3464;42.728;23.296;2022-11-11T00:34:52;85.13;;;43.57;;
6850;SDS011;3464;42.728;23.296;2022-11-11T00:37:25;85.60;;;48.00;;
6850;SDS011;3464;42.728;23.296;2022-11-11T00:39:51;69.30;;;41.30;;
6850;SDS011;3464;42.728;23.296;2022-11-11T00:42:18;84.00;;;43.53;;
6850;SDS011;3464;42.728;23.296;2022-11-11T00:44:44;75.90;;;43.17;;
6850;SDS011;3464;42.728;23.296;2022-11-11T00:47:11;84.20;;;45.77;;
6850;SDS011;3464;42.728;23.296;2022-11-11T00:49:43;79.57;;;43.50;;
6850;SDS011;3464;42.728;23.296;2022-11-11T00:52:15;80.90;;;45.13;;
6850;SDS011;3464;42.728;23.296;2022-11-11T00:54:42;74.87;;;44.77;;
6850;SDS011;3464;42.728;23.296;2022-11-11T00:57:08;77.90;;;38.57;;
6850;SDS011;3464;42.728;23.296;2022-11-11T00:59:35;75.77;;;40.77;;
6850;SDS011;3464;42.728;23.296;2022-11-11T01:02:02;70.47;;;40.40;;
6850;SDS011;3464;42.728;23.296;2022-11-11T01:04:28;67.37;;;39.10;;
6850;SDS011;3464;42.728;23.296;2022-11-11T01:06:55;74.37;;;40.10;;
6850;SDS011;3464;42.728;23.296;2022-11-11T01:09:21;76.50;;;42.53;;
6850;SDS011;3464;42.728;23.296;2022-11-11T01:11:48;79.27;;;42.87;;
6850;SDS011;3464;42.728;23.296;2022-11-11T01:14:15;80.30;;;43.30;;
6850;SDS011;3464;42.728;23.296;2022-11-11T01:16:41;77.37;;;43.47;;
6850;SDS011;3464;42.728;23.296;2022-11-11T01:19:09;77.50;;;41.70;;
6850;SDS011;3464;42.728;23.296;2022-11-11T01:21:36;75.23;;;43.50;;
6850;SDS011;3464;42.728;23.296;2022-11-11T01:24:03;78.33;;;43.70;;
6850;SDS011;3464;42.728;23.296;2022-11-11T01:26:30;80.23;;;46.20;;
6850;SDS011;3464;42.728;23.296;2022-11-11T01:28:56;77.40;;;45.07;;
6850;SDS011;3464;42.728;23.296;2022-11-11T01:31:23;77.07;;;44.40;;
6850;SDS011;3464;42.728;23.296;2022-11-11T01:33:49;80.17;;;47.90;;
6850;SDS011;3464;42.728;23.296;2022-11-11T01:36:17;87.00;;;50.43;;
6850;SDS011;3464;42.728;23.296;2022-11-11T01:38:43;88.73;;;49.67;;
6850;SDS011;3464;42.728;23.296;2022-11-11T01:41:11;90.70;;;51.13;;
6850;SDS011;3464;42.728;23.296;2022-11-11T01:43:42;82.50;;;47.70;;
6850;SDS011;3464;42.728;23.296;2022-11-11T01:46:12;80.83;;;45.93;;
6850;SDS011;3464;42.728;23.296;2022-11-11T01:48:39;83.47;;;45.50;;
6850;SDS011;3464;42.728;23.296;2022-11-11T01:51:18;83.70;;;43.77;;
6850;SDS011;3464;42.728;23.296;2022-11-11T01:53:46;78.67;;;45.53;;
6850;SDS011;3464;42.728;23.296;2022-11-11T01:56:12;79.13;;;42.67;;
6850;SDS011;3464;42.728;23.296;2022-11-11T01:58:39;71.40;;;39.47;;
6850;SDS011;3464;42.728;23.296;2022-11-11T02:01:06;74.07;;;43.27;;
6850;SDS011;3464;42.728;23.296;2022-11-11T02:03:34;76.33;;;43.30;;
6850;SDS011;3464;42.728;23.296;2022-11-11T02:05:59;80.47;;;43.00;;
6850;SDS011;3464;42.728;23.296;2022-11-11T02:08:30;75.40;;;40.90;;
6850;SDS011;3464;42.728;23.296;2022-11-11T02:13:40;76.27;;;43.20;;
6850;SDS011;3464;42.728;23.296;2022-11-11T02:16:13;74.27;;;42.17;;
6850;SDS011;3464;42.728;23.296;2022-11-11T02:18:40;84.37;;;44.00;;
6850;SDS011;3464;42.728;23.296;2022-11-11T02:21:06;75.97;;;43.17;;
6850;SDS011;3464;42.728;23.296;2022-11-11T02:23:36;84.33;;;46.40;;
6850;SDS011;3464;42.728;23.296;2022-11-11T02:26:00;86.27;;;47.10;;
6850;SDS011;3464;42.728;23.296;2022-11-11T02:28:27;82.00;;;44.50;;
6850;SDS011;3464;42.728;23.296;2022-11-11T02:30:53;85.40;;;45.13;;
6850;SDS011;3464;42.728;23.296;2022-11-11T02:33:20;86.80;;;47.30;;
6850;SDS011;3464;42.728;23.296;2022-11-11T02:35:48;86.37;;;47.03;;
6850;SDS011;3464;42.728;23.296;2022-11-11T02:38:20;92.10;;;46.90;;
6850;SDS011;3464;42.728;23.296;2022-11-11T02:40:47;85.67;;;45.23;;
6850;SDS011;3464;42.728;23.296;2022-11-11T02:43:19;87.47;;;45.03;;
6850;SDS011;3464;42.728;23.296;2022-11-11T02:45:45;78.97;;;44.20;;
6850;SDS011;3464;42.728;23.296;2022-11-11T02:48:12;86.07;;;46.40;;
6850;SDS011;3464;42.728;23.296;2022-11-11T02:50:39;89.20;;;48.30;;
6850;SDS011;3464;42.728;23.296;2022-11-11T02:53:05;83.60;;;44.30;;
6850;SDS011;3464;42.728;23.296;2022-11-11T02:55:32;82.03;;;44.30;;
6850;SDS011;3464;42.728;23.296;2022-11-11T02:57:59;85.10;;;45.77;;
6850;SDS011;3464;42.728;23.296;2022-11-11T03:00:25;85.73;;;46.73;;
6850;SDS011;3464;42.728;23.296;2022-11-11T03:02:52;84.80;;;46.27;;
6850;SDS011;3464;42.728;23.296;2022-11-11T03:05:18;82.63;;;46.60;;
6850;SDS011;3464;42.728;23.296;2022-11-11T03:07:45;81.50;;;46.63;;
6850;SDS011;3464;42.728;23.296;2022-11-11T03:10:13;98.93;;;50.07;;
6850;SDS011;3464;42.728;23.296;2022-11-11T03:12:40;94.80;;;50.33;;
6850;SDS011;3464;42.728;23.296;2022-11-11T03:15:06;87.20;;;49.07;;
6850;SDS011;3464;42.728;23.296;2022-11-11T03:17:33;81.53;;;45.13;;
6850;SDS011;3464;42.728;23.296;2022-11-11T03:20:05;81.83;;;46.37;;
6850;SDS011;3464;42.728;23.296;2022-11-11T03:22:40;78.30;;;41.57;;
6850;SDS011;3464;42.728;23.296;2022-11-11T03:25:07;82.40;;;40.30;;
6850;SDS011;3464;42.728;23.296;2022-11-11T03:27:40;76.53;;;42.70;;
6850;SDS011;3464;42.728;23.296;2022-11-11T03:30:06;72.27;;;38.43;;
6850;SDS011;3464;42.728;23.296;2022-11-11T03:32:33;76.40;;;40.50;;
6850;SDS011;3464;42.728;23.296;2022-11-11T03:35:00;80.87;;;39.00;;
6850;SDS011;3464;42.728;23.296;2022-11-11T03:37:27;76.93;;;39.77;;
6850;SDS011;3464;42.728;23.296;2022-11-11T03:39:59;85.10;;;42.80;;
6850;SDS011;3464;42.728;23.296;2022-11-11T03:42:26;81.23;;;44.90;;
6850;SDS011;3464;42.728;23.296;2022-11-11T03:44:53;85.10;;;45.67;;
6850;SDS011;3464;42.728;23.296;2022-11-11T03:47:19;74.77;;;40.37;;
6850;SDS011;3464;42.728;23.296;2022-11-11T03:49:46;71.50;;;43.27;;
6850;SDS011;3464;42.728;23.296;2022-11-11T03:52:12;73.37;;;39.07;;
6850;SDS011;3464;42.728;23.296;2022-11-11T03:54:39;77.33;;;39.30;;
6850;SDS011;3464;42.728;23.296;2022-11-11T03:57:05;72.20;;;38.00;;
6850;SDS011;3464;42.728;23.296;2022-11-11T03:59:48;79.40;;;42.30;;
6850;SDS011;3464;42.728;23.296;2022-11-11T04:02:15;67.93;;;39.27;;
6850;SDS011;3464;42.728;23.296;2022-11-11T04:04:47;69.67;;;41.43;;
6850;SDS011;3464;42.728;23.296;2022-11-11T04:07:18;72.90;;;39.37;;
6850;SDS011;3464;42.728;23.296;2022-11-11T04:09:51;72.90;;;38.10;;
6850;SDS011;3464;42.728;23.296;2022-11-11T04:12:25;70.33;;;38.20;;
6850;SDS011;3464;42.728;23.296;2022-11-11T04:14:52;73.20;;;38.10;;
6850;SDS011;3464;42.728;23.296;2022-11-11T04:17:24;75.80;;;37.50;;
6850;SDS011;3464;42.728;23.296;2022-11-11T04:19:51;82.70;;;38.90;;
6850;SDS011;3464;42.728;23.296;2022-11-11T04:22:23;75.20;;;39.10;;
6850;SDS011;3464;42.728;23.296;2022-11-11T04:24:50;73.03;;;37.73;;
6850;SDS011;3464;42.728;23.296;2022-11-11T04:27:22;72.47;;;39.93;;
6850;SDS011;3464;42.728;23.296;2022-11-11T04:29:48;72.70;;;39.60;;
6850;SDS011;3464;42.728;23.296;2022-11-11T04:32:16;70.47;;;39.27;;
6850;SDS011;3464;42.728;23.296;2022-11-11T04:34:52;83.93;;;41.20;;
6850;SDS011;3464;42.728;23.296;2022-11-11T04:37:19;76.67;;;39.97;;
6850;SDS011;3464;42.728;23.296;2022-11-11T04:39:45;73.70;;;39.40;;
6850;SDS011;3464;42.728;23.296;2022-11-11T04:42:18;70.07;;;37.70;;
6850;SDS011;3464;42.728;23.296;2022-11-11T04:44:44;74.70;;;39.07;;
6850;SDS011;3464;42.728;23.296;2022-11-11T04:47:18;74.03;;;39.60;;
6850;SDS011;3464;42.728;23.296;2022-11-11T04:49:44;78.77;;;40.63;;
6850;SDS011;3464;42.728;23.296;2022-11-11T04:52:11;73.07;;;40.60;;
6850;SDS011;3464;42.728;23.296;2022-11-11T04:54:43;75.70;;;38.90;;
6850;SDS011;3464;42.728;23.296;2022-11-11T04:57:15;72.60;;;38.97;;
6850;SDS011;3464;42.728;23.296;2022-11-11T04:59:41;68.27;;;38.10;;
6850;SDS011;3464;42.728;23.296;2022-11-11T05:02:08;73.70;;;38.23;;
6850;SDS011;3464;42.728;23.296;2022-11-11T05:04:40;74.93;;;38.67;;
6850;SDS011;3464;42.728;23.296;2022-11-11T05:07:07;70.07;;;37.47;;
6850;SDS011;3464;42.728;23.296;2022-11-11T05:09:39;72.03;;;36.20;;
6850;SDS011;3464;42.728;23.296;2022-11-11T05:12:06;72.90;;;37.83;;
6850;SDS011;3464;42.728;23.296;2022-11-11T05:14:33;64.27;;;34.87;;
6850;SDS011;3464;42.728;23.296;2022-11-11T05:17:07;71.07;;;36.70;;
6850;SDS011;3464;42.728;23.296;2022-11-11T05:19:38;67.70;;;36.90;;
6850;SDS011;3464;42.728;23.296;2022-11-11T05:22:13;79.83;;;39.30;;
6850;SDS011;3464;42.728;23.296;2022-11-11T05:24:39;64.37;;;34.17;;
6850;SDS011;3464;42.728;23.296;2022-11-11T05:27:11;63.57;;;34.10;;
6850;SDS011;3464;42.728;23.296;2022-11-11T05:29:37;68.83;;;35.30;;
6850;SDS011;3464;42.728;23.296;2022-11-11T05:32:06;57.53;;;31.50;;
6850;SDS011;3464;42.728;23.296;2022-11-11T05:34:30;71.33;;;36.37;;
6850;SDS011;3464;42.728;23.296;2022-11-11T05:36:57;71.43;;;37.60;;
6850;SDS011;3464;42.728;23.296;2022-11-11T05:39:24;64.23;;;33.80;;
6850;SDS011;3464;42.728;23.296;2022-11-11T05:41:51;60.70;;;31.13;;
6850;SDS011;3464;42.728;23.296;2022-11-11T05:44:18;56.50;;;30.47;;
6850;SDS011;3464;42.728;23.296;2022-11-11T05:46:44;56.57;;;31.13;;
6850;SDS011;3464;42.728;23.296;2022-11-11T05:49:12;55.27;;;32.50;;
6850;SDS011;3464;42.728;23.296;2022-11-11T05:51:40;55.23;;;29.10;;
6850;SDS011;3464;42.728;23.296;2022-11-11T05:54:06;54.77;;;29.00;;
6850;SDS011;3464;42.728;23.296;2022-11-11T05:56:34;52.53;;;28.60;;
6850;SDS011;3464;42.728;23.296;2022-11-11T05:59:00;52.70;;;27.97;;
6850;SDS011;3464;42.728;23.296;2022-11-11T06:01:27;46.90;;;26.63;;
6850;SDS011;3464;42.728;23.296;2022-11-11T06:03:53;49.60;;;26.33;;
6850;SDS011;3464;42.728;23.296;2022-11-11T06:06:20;45.80;;;25.60;;
6850;SDS011;3464;42.728;23.296;2022-11-11T06:08:46;62.43;;;25.90;;
6850;SDS011;3464;42.728;23.296;2022-11-11T06:11:14;405.57;;;82.17;;
6850;SDS011;3464;42.728;23.296;2022-11-11T06:13:41;133.00;;;34.20;;
6850;SDS011;3464;42.728;23.296;2022-11-11T06:16:09;49.67;;;24.00;;
6850;SDS011;3464;42.728;23.296;2022-11-11T06:18:37;45.60;;;25.23;;
6850;SDS011;3464;42.728;23.296;2022-11-11T06:21:03;101.90;;;28.33;;
6850;SDS011;3464;42.728;23.296;2022-11-11T06:23:31;47.30;;;24.50;;
6850;SDS011;3464;42.728;23.296;2022-11-11T06:25:58;49.60;;;25.53;;
6850;SDS011;3464;42.728;23.296;2022-11-11T06:28:31;42.63;;;24.37;;
6850;SDS011;3464;42.728;23.296;2022-11-11T06:30:57;52.30;;;26.47;;
6850;SDS011;3464;42.728;23.296;2022-11-11T06:33:24;46.00;;;24.77;;
6850;SDS011;3464;42.728;23.296;2022-11-11T06:35:50;47.10;;;26.40;;
6850;SDS011;3464;42.728;23.296;2022-11-11T06:38:17;50.03;;;26.07;;
6850;SDS011;3464;42.728;23.296;2022-11-11T06:40:44;46.50;;;25.50;;
6850;SDS011;3464;42.728;23.296;2022-11-11T06:43:11;53.60;;;27.70;;
6850;SDS011;3464;42.728;23.296;2022-11-11T06:45:39;53.47;;;27.30;;
6850;SDS011;3464;42.728;23.296;2022-11-11T06:48:05;48.10;;;26.30;;
6850;SDS011;3464;42.728;23.296;2022-11-11T06:50:32;49.70;;;26.40;;
6850;SDS011;3464;42.728;23.296;2022-11-11T06:53:04;52.30;;;26.70;;
6850;SDS011;3464;42.728;23.296;2022-11-11T06:55:32;48.60;;;25.73;;
6850;SDS011;3464;42.728;23.296;2022-11-11T07:00:32;45.73;;;25.10;;
6850;SDS011;3464;42.728;23.296;2022-11-11T07:02:58;49.83;;;26.83;;
6850;SDS011;3464;42.728;23.296;2022-11-11T07:05:25;47.10;;;25.50;;
6850;SDS011;3464;42.728;23.296;2022-11-11T07:07:51;47.37;;;24.70;;
6850;SDS011;3464;42.728;23.296;2022-11-11T07:10:18;51.80;;;25.73;;
6850;SDS011;3464;42.728;23.296;2022-11-11T07:12:44;47.17;;;24.47;;
6850;SDS011;3464;42.728;23.296;2022-11-11T07:15:11;51.40;;;24.37;;
6850;SDS011;3464;42.728;23.296;2022-11-11T07:17:38;47.00;;;23.43;;
6850;SDS011;3464;42.728;23.296;2022-11-11T07:20:04;49.53;;;25.30;;
6850;SDS011;3464;42.728;23.296;2022-11-11T07:22:34;46.33;;;24.53;;
6850;SDS011;3464;42.728;23.296;2022-11-11T07:24:59;46.67;;;22.60;;
6850;SDS011;3464;42.728;23.296;2022-11-11T07:27:26;45.03;;;23.90;;
6850;SDS011;3464;42.728;23.296;2022-11-11T07:29:52;44.73;;;22.87;;
6850;SDS011;3464;42.728;23.296;2022-11-11T07:32:19;51.40;;;24.87;;
6850;SDS011;3464;42.728;23.296;2022-11-11T07:34:45;48.27;;;23.33;;
6850;SDS011;3464;42.728;23.296;2022-11-11T07:37:12;45.53;;;23.23;;
6850;SDS011;3464;42.728;23.296;2022-11-11T07:39:38;45.10;;;23.83;;
6850;SDS011;3464;42.728;23.296;2022-11-11T07:42:05;45.73;;;23.40;;
6850;SDS011;3464;42.728;23.296;2022-11-11T07:44:32;45.10;;;22.53;;
6850;SDS011;3464;42.728;23.296;2022-11-11T07:46:58;43.33;;;22.10;;
6850;SDS011;3464;42.728;23.296;2022-11-11T07:49:25;42.37;;;21.20;;
6850;SDS011;3464;42.728;23.296;2022-11-11T07:51:51;40.83;;;20.20;;
6850;SDS011;3464;42.728;23.296;2022-11-11T07:54:18;42.63;;;20.83;;
6850;SDS011;3464;42.728;23.296;2022-11-11T07:56:44;40.20;;;21.10;;
6850;SDS011;3464;42.728;23.296;2022-11-11T07:59:11;40.80;;;20.70;;
6850;SDS011;3464;42.728;23.296;2022-11-11T08:01:37;39.83;;;21.53;;
6850;SDS011;3464;42.728;23.296;2022-11-11T08:04:04;40.10;;;21.03;;
6850;SDS011;3464;42.728;23.296;2022-11-11T08:06:31;41.90;;;21.87;;
6850;SDS011;3464;42.728;23.296;2022-11-11T08:08:58;45.40;;;21.07;;
6850;SDS011;3464;42.728;23.296;2022-11-11T08:11:25;36.30;;;19.57;;
6850;SDS011;3464;42.728;23.296;2022-11-11T08:13:57;38.47;;;20.90;;
6850;SDS011;3464;42.728;23.296;2022-11-11T08:16:24;36.53;;;19.00;;
6850;SDS011;3464;42.728;23.296;2022-11-11T08:18:52;35.80;;;19.27;;
6850;SDS011;3464;42.728;23.296;2022-11-11T08:21:18;35.50;;;19.47;;
6850;SDS011;3464;42.728;23.296;2022-11-11T08:23:45;34.80;;;19.57;;
6850;SDS011;3464;42.728;23.296;2022-11-11T08:26:11;37.53;;;18.87;;
6850;SDS011;3464;42.728;23.296;2022-11-11T08:28:38;41.43;;;19.00;;
6850;SDS011;3464;42.728;23.296;2022-11-11T08:31:05;35.50;;;18.20;;
6850;SDS011;3464;42.728;23.296;2022-11-11T08:33:31;32.00;;;17.87;;
6850;SDS011;3464;42.728;23.296;2022-11-11T08:35:58;32.20;;;18.27;;
6850;SDS011;3464;42.728;23.296;2022-11-11T08:38:24;35.93;;;16.90;;
6850;SDS011;3464;42.728;23.296;2022-11-11T08:40:51;33.50;;;17.20;;
6850;SDS011;3464;42.728;23.296;2022-11-11T08:43:18;29.80;;;15.73;;
6850;SDS011;3464;42.728;23.296;2022-11-11T08:45:44;32.60;;;16.60;;
6850;SDS011;3464;42.728;23.296;2022-11-11T08:48:11;29.57;;;16.47;;
6850;SDS011;3464;42.728;23.296;2022-11-11T08:50:38;27.87;;;15.23;;
6850;SDS011;3464;42.728;23.296;2022-11-11T08:53:06;30.70;;;16.20;;
6850;SDS011;3464;42.728;23.296;2022-11-11T08:55:33;29.43;;;15.87;;
6850;SDS011;3464;42.728;23.296;2022-11-11T08:58:02;25.97;;;13.20;;
6850;SDS011;3464;42.728;23.296;2022-11-11T09:00:28;27.00;;;14.30;;
6850;SDS011;3464;42.728;23.296;2022-11-11T09:02:59;25.00;;;13.80;;
6850;SDS011;3464;42.728;23.296;2022-11-11T09:05:29;26.53;;;14.27;;
6850;SDS011;3464;42.728;23.296;2022-11-11T09:07:59;26.70;;;14.10;;
6850;SDS011;3464;42.728;23.296;2022-11-11T09:10:22;27.37;;;14.40;;
6850;SDS011;3464;42.728;23.296;2022-11-11T09:12:54;24.47;;;12.87;;
6850;SDS011;3464;42.728;23.296;2022-11-11T09:15:16;23.40;;;12.33;;
6850;SDS011;3464;42.728;23.296;2022-11-11T09:17:45;23.30;;;12.70;;
6850;SDS011;3464;42.728;23.296;2022-11-11T09:20:12;22.40;;;11.30;;
6850;SDS011;3464;42.728;23.296;2022-11-11T09:22:42;18.43;;;9.73;;
6850;SDS011;3464;42.728;23.296;2022-11-11T09:25:08;20.87;;;10.27;;
6850;SDS011;3464;42.728;23.296;2022-11-11T09:27:35;22.60;;;11.07;;
6850;SDS011;3464;42.728;23.296;2022-11-11T09:30:02;19.53;;;10.47;;
6850;SDS011;3464;42.728;23.296;2022-11-11T09:32:29;25.53;;;10.73;;
6850;SDS011;3464;42.728;23.296;2022-11-11T09:34:56;28.53;;;10.33;;
6850;SDS011;3464;42.728;23.296;2022-11-11T09:37:23;20.93;;;9.73;;
6850;SDS011;3464;42.728;23.296;2022-11-11T09:39:49;23.80;;;10.90;;
6850;SDS011;3464;42.728;23.296;2022-11-11T09:42:18;18.57;;;9.97;;
6850;SDS011;3464;42.728;23.296;2022-11-11T09:44:55;21.30;;;10.80;;
6850;SDS011;3464;42.728;23.296;2022-11-11T09:47:30;21.20;;;11.60;;
6850;SDS011;3464;42.728;23.296;2022-11-11T09:50:01;20.63;;;11.40;;
6850;SDS011;3464;42.728;23.296;2022-11-11T09:52:35;21.73;;;10.80;;
6850;SDS011;3464;42.728;23.296;2022-11-11T09:55:11;24.20;;;11.57;;
6850;SDS011;3464;42.728;23.296;2022-11-11T09:57:41;21.47;;;10.77;;
6850;SDS011;3464;42.728;23.296;2022-11-11T10:00:18;20.60;;;11.10;;
6850;SDS011;3464;42.728;23.296;2022-11-11T10:02:46;21.47;;;10.47;;
6850;SDS011;3464;42.728;23.296;2022-11-11T10:05:16;20.27;;;10.03;;
6850;SDS011;3464;42.728;23.296;2022-11-11T10:07:44;20.27;;;10.30;;
6850;SDS011;3464;42.728;23.296;2022-11-11T10:10:11;24.37;;;9.87;;
6850;SDS011;3464;42.728;23.296;2022-11-11T10:12:49;24.30;;;10.47;;
6850;SDS011;3464;42.728;23.296;2022-11-11T10:15:19;19.80;;;10.43;;
6850;SDS011;3464;42.728;23.296;2022-11-11T10:17:45;19.23;;;10.27;;
6850;SDS011;3464;42.728;23.296;2022-11-11T10:20:11;20.73;;;9.60;;
6850;SDS011;3464;42.728;23.296;2022-11-11T10:22:43;22.50;;;10.67;;
6850;SDS011;3464;42.728;23.296;2022-11-11T10:25:19;26.83;;;10.07;;
6850;SDS011;3464;42.728;23.296;2022-11-11T10:27:47;19.90;;;9.63;;
6850;SDS011;3464;42.728;23.296;2022-11-11T10:30:17;20.20;;;10.10;;
6850;SDS011;3464;42.728;23.296;2022-11-11T10:32:44;16.60;;;9.23;;
6850;SDS011;3464;42.728;23.296;2022-11-11T10:35:12;16.80;;;9.63;;
6850;SDS011;3464;42.728;23.296;2022-11-11T10:37:41;20.83;;;10.33;;
6850;SDS011;3464;42.728;23.296;2022-11-11T10:41:18;20.00;;;9.73;;
6850;SDS011;3464;42.728;23.296;2022-11-11T10:42:52;22.53;;;9.63;;
6850;SDS011;3464;42.728;23.296;2022-11-11T10:45:23;18.80;;;8.87;;
6850;SDS011;3464;42.728;23.296;2022-11-11T10:47:57;20.43;;;10.10;;
6850;SDS011;3464;42.728;23.296;2022-11-11T10:50:27;19.27;;;9.60;;
6850;SDS011;3464;42.728;23.296;2022-11-11T10:52:55;18.53;;;8.87;;
6850;SDS011;3464;42.728;23.296;2022-11-11T10:55:38;20.07;;;9.57;;
6850;SDS011;3464;42.728;23.296;2022-11-11T10:58:10;18.07;;;9.10;;
6850;SDS011;3464;42.728;23.296;2022-11-11T11:00:35;19.53;;;9.93;;
6850;SDS011;3464;42.728;23.296;2022-11-11T11:03:07;17.83;;;9.47;;
6850;SDS011;3464;42.728;23.296;2022-11-11T11:05:42;18.63;;;8.73;;
6850;SDS011;3464;42.728;23.296;2022-11-11T11:08:19;19.07;;;8.93;;
6850;SDS011;3464;42.728;23.296;2022-11-11T11:10:47;18.20;;;7.97;;
6850;SDS011;3464;42.728;23.296;2022-11-11T11:13:14;21.70;;;9.47;;
6850;SDS011;3464;42.728;23.296;2022-11-11T11:15:41;16.40;;;8.50;;
6850;SDS011;3464;42.728;23.296;2022-11-11T11:18:09;19.00;;;8.80;;
6850;SDS011;3464;42.728;23.296;2022-11-11T11:20:34;19.40;;;9.30;;
6850;SDS011;3464;42.728;23.296;2022-11-11T11:23:01;19.33;;;8.03;;
6850;SDS011;3464;42.728;23.296;2022-11-11T11:25:29;17.00;;;7.33;;
6850;SDS011;3464;42.728;23.296;2022-11-11T11:30:30;15.63;;;7.27;;
6850;SDS011;3464;42.728;23.296;2022-11-11T11:32:58;18.23;;;7.30;;
6850;SDS011;3464;42.728;23.296;2022-11-11T11:35:33;16.20;;;7.33;;
6850;SDS011;3464;42.728;23.296;2022-11-11T11:38:03;20.27;;;7.23;;
6850;SDS011;3464;42.728;23.296;2022-11-11T11:40:48;14.80;;;6.77;;
6850;SDS011;3464;42.728;23.296;2022-11-11T11:43:23;14.57;;;6.70;;
6850;SDS011;3464;42.728;23.296;2022-11-11T11:45:55;19.33;;;7.70;;
6850;SDS011;3464;42.728;23.296;2022-11-11T11:48:30;22.63;;;8.47;;
6850;SDS011;3464;42.728;23.296;2022-11-11T11:51:19;17.13;;;7.30;;
6850;SDS011;3464;42.728;23.296;2022-11-11T11:56:57;19.10;;;7.93;;
6850;SDS011;3464;42.728;23.296;2022-11-11T11:59:46;15.50;;;7.43;;
6850;SDS011;3464;42.728;23.296;2022-11-11T12:02:20;15.27;;;6.43;;
6850;SDS011;3464;42.728;23.296;2022-11-11T12:04:49;16.10;;;7.00;;
6850;SDS011;3464;42.728;23.296;2022-11-11T12:08:26;14.43;;;7.03;;
6850;SDS011;3464;42.728;23.296;2022-11-11T12:10:02;14.90;;;7.30;;
6850;SDS011;3464;42.728;23.296;2022-11-11T12:12:31;16.73;;;7.80;;
6850;SDS011;3464;42.728;23.296;2022-11-11T12:15:13;16.90;;;7.50;;
6850;SDS011;3464;42.728;23.296;2022-11-11T12:17:43;17.13;;;7.07;;
6850;SDS011;3464;42.728;23.296;2022-11-11T12:20:22;14.40;;;6.70;;
6850;SDS011;3464;42.728;23.296;2022-11-11T12:26:48;17.57;;;7.60;;
6850;SDS011;3464;42.728;23.296;2022-11-11T12:31:09;17.93;;;7.40;;
6850;SDS011;3464;42.728;23.296;2022-11-11T12:33:49;15.70;;;7.50;;
6850;SDS011;3464;42.728;23.296;2022-11-11T12:36:34;20.90;;;7.93;;
6850;SDS011;3464;42.728;23.296;2022-11-11T12:39:05;15.10;;;7.30;;
6850;SDS011;3464;42.728;23.296;2022-11-11T12:41:41;16.50;;;7.63;;
6850;SDS011;3464;42.728;23.296;2022-11-11T12:44:18;17.07;;;8.33;;
6850;SDS011;3464;42.728;23.296;2022-11-11T12:46:50;18.53;;;7.50;;
6850;SDS011;3464;42.728;23.296;2022-11-11T12:49:32;16.23;;;7.80;;
6850;SDS011;3464;42.728;23.296;2022-11-11T12:52:05;15.40;;;7.47;;
6850;SDS011;3464;42.728;23.296;2022-11-11T12:57:45;15.77;;;7.60;;
6850;SDS011;3464;42.728;23.296;2022-11-11T13:00:24;15.50;;;7.47;;
6850;SDS011;3464;42.728;23.296;2022-11-11T13:05:49;18.27;;;8.10;;
6850;SDS011;3464;42.728;23.296;2022-11-11T13:08:38;16.17;;;8.13;;
6850;SDS011;3464;42.728;23.296;2022-11-11T13:11:20;16.20;;;7.27;;
6850;SDS011;3464;42.728;23.296;2022-11-11T13:13:50;16.83;;;6.87;;
6850;SDS011;3464;42.728;23.296;2022-11-11T13:16:17;17.43;;;7.73;;
6850;SDS011;3464;42.728;23.296;2022-11-11T13:18:48;17.60;;;7.60;;
6850;SDS011;3464;42.728;23.296;2022-11-11T13:21:14;21.90;;;8.97;;
6850;SDS011;3464;42.728;23.296;2022-11-11T13:23:41;16.00;;;7.60;;
6850;SDS011;3464;42.728;23.296;2022-11-11T13:26:23;17.60;;;8.37;;
6850;SDS011;3464;42.728;23.296;2022-11-11T13:29:09;17.77;;;8.20;;
6850;SDS011;3464;42.728;23.296;2022-11-11T13:31:37;17.80;;;8.00;;
6850;SDS011;3464;42.728;23.296;2022-11-11T13:34:05;20.73;;;8.10;;
6850;SDS011;3464;42.728;23.296;2022-11-11T13:36:34;20.03;;;8.47;;
6850;SDS011;3464;42.728;23.296;2022-11-11T13:38:59;23.93;;;8.37;;
6850;SDS011;3464;42.728;23.296;2022-11-11T13:41:26;19.37;;;8.60;;
6850;SDS011;3464;42.728;23.296;2022-11-11T13:43:58;20.10;;;9.27;;
6850;SDS011;3464;42.728;23.296;2022-11-11T13:46:31;25.53;;;10.23;;
6850;SDS011;3464;42.728;23.296;2022-11-11T13:49:02;18.10;;;8.63;;
6850;SDS011;3464;42.728;23.296;2022-11-11T13:51:35;20.10;;;9.57;;
6850;SDS011;3464;42.728;23.296;2022-11-11T13:54:01;22.20;;;8.80;;
6850;SDS011;3464;42.728;23.296;2022-11-11T13:56:33;18.80;;;9.60;;
6850;SDS011;3464;42.728;23.296;2022-11-11T13:59:01;21.57;;;9.63;;
6850;SDS011;3464;42.728;23.296;2022-11-11T14:01:32;18.83;;;8.93;;
6850;SDS011;3464;42.728;23.296;2022-11-11T14:03:59;19.87;;;10.13;;
6850;SDS011;3464;42.728;23.296;2022-11-11T14:09:50;24.50;;;8.90;;
6850;SDS011;3464;42.728;23.296;2022-11-11T14:11:40;25.00;;;9.53;;
6850;SDS011;3464;42.728;23.296;2022-11-11T14:19:30;29.87;;;11.40;;
6850;SDS011;3464;42.728;23.296;2022-11-11T14:21:59;23.90;;;10.47;;
6850;SDS011;3464;42.728;23.296;2022-11-11T14:24:30;23.70;;;10.20;;
6850;SDS011;3464;42.728;23.296;2022-11-11T14:26:56;20.97;;;9.70;;
6850;SDS011;3464;42.728;23.296;2022-11-11T14:29:22;27.70;;;11.10;;
6850;SDS011;3464;42.728;23.296;2022-11-11T14:31:55;25.57;;;10.63;;
6850;SDS011;3464;42.728;23.296;2022-11-11T14:34:23;28.40;;;12.53;;
6850;SDS011;3464;42.728;23.296;2022-11-11T14:39:41;28.90;;;12.67;;
6850;SDS011;3464;42.728;23.296;2022-11-11T14:42:45;23.90;;;11.97;;
6850;SDS011;3464;42.728;23.296;2022-11-11T14:48:29;24.03;;;10.83;;
6850;SDS011;3464;42.728;23.296;2022-11-11T14:53:12;22.13;;;10.17;;
6850;SDS011;3464;42.728;23.296;2022-11-11T14:55:38;22.20;;;10.87;;
6850;SDS011;3464;42.728;23.296;2022-11-11T14:58:13;22.63;;;11.20;;
6850;SDS011;3464;42.728;23.296;2022-11-11T15:00:46;27.50;;;11.90;;
6850;SDS011;3464;42.728;23.296;2022-11-11T15:03:24;25.57;;;11.30;;
6850;SDS011;3464;42.728;23.296;2022-11-11T15:06:12;26.60;;;11.70;;
6850;SDS011;3464;42.728;23.296;2022-11-11T15:08:45;22.30;;;10.80;;
6850;SDS011;3464;42.728;23.296;2022-11-11T15:14:49;24.33;;;11.60;;
6850;SDS011;3464;42.728;23.296;2022-11-11T15:17:21;26.70;;;12.20;;
6850;SDS011;3464;42.728;23.296;2022-11-11T15:19:52;26.00;;;11.93;;
6850;SDS011;3464;42.728;23.296;2022-11-11T15:22:33;24.40;;;11.73;;
6850;SDS011;3464;42.728;23.296;2022-11-11T15:25:21;25.17;;;12.03;;
6850;SDS011;3464;42.728;23.296;2022-11-11T15:27:49;27.23;;;12.63;;
6850;SDS011;3464;42.728;23.296;2022-11-11T15:30:15;27.73;;;13.57;;
6850;SDS011;3464;42.728;23.296;2022-11-11T15:32:49;30.13;;;13.50;;
6850;SDS011;3464;42.728;23.296;2022-11-11T15:38:12;27.20;;;13.17;;